Time;durP1;ratioP1;P1;durP2;ratioP2;P2;SDS_P1;SDS_P2;PMS_P1;PMS_P2;Temp;Humidity;BMP_temperature;BMP_pressure;BME280_temperature;BME280_humidity;BME280_pressure;Samples;Min_cycle;Max_cycle;Signal;HPM_P1;HPM_P2
2023/10/31 00:00:28;;;;;;;3.10;0.70;;;15.10;85.40;;;;;;5072115;28;20457;-80
2023/10/31 00:03:03;;;;;;;5.10;0.80;;;15.10;85.40;;;;;;5100560;28;20454;-83
2023/10/31 00:05:31;;;;;;;3.57;0.97;;;15.10;85.50;;;;;;5087661;28;20528;-81
2023/10/31 00:07:59;;;;;;;3.80;0.57;;;15.10;85.50;;;;;;5082397;28;20485;-79
2023/10/31 00:10:27;;;;;;;3.77;0.70;;;15.00;85.50;;;;;;5077791;28;20499;-80
2023/10/31 00:13:03;;;;;;;4.20;0.80;;;15.10;85.50;;;;;;5081580;28;20536;-80
2023/10/31 00:15:32;;;;;;;3.03;0.60;;;15.00;85.40;;;;;;5077322;28;20480;-80
2023/10/31 00:18:00;;;;;;;3.17;0.70;;;15.00;85.40;;;;;;5094527;28;20444;-80
2023/10/31 00:20:31;;;;;;;3.20;0.63;;;15.00;85.50;;;;;;5100433;28;20513;-80
2023/10/31 00:22:59;;;;;;;3.00;0.63;;;14.90;85.60;;;;;;5082822;28;20483;-81
2023/10/31 00:25:27;;;;;;;2.90;0.57;;;15.00;85.50;;;;;;5086899;28;20456;-80
2023/10/31 00:27:57;;;;;;;2.80;0.50;;;14.90;85.50;;;;;;5099418;28;20551;-80
2023/10/31 00:30:25;;;;;;;2.90;0.40;;;14.90;85.50;;;;;;5080662;28;20483;-80
2023/10/31 00:32:55;;;;;;;3.30;0.50;;;14.90;85.70;;;;;;5076929;28;20990;-82
2023/10/31 00:35:23;;;;;;;2.93;0.60;;;14.80;85.70;;;;;;5098339;28;20457;-81
2023/10/31 00:37:51;;;;;;;3.20;0.70;;;14.80;85.80;;;;;;5099881;28;20555;-82
2023/10/31 00:40:20;;;;;;;4.00;0.53;;;14.80;85.80;;;;;;5093193;28;20522;-83
2023/10/31 00:42:48;;;;;;;4.30;0.60;;;14.70;85.80;;;;;;5107648;28;20540;-83
2023/10/31 00:45:16;;;;;;;2.90;0.53;;;14.70;85.80;;;;;;5081001;28;20528;-81
2023/10/31 00:47:44;;;;;;;4.60;0.80;;;14.80;85.90;;;;;;5083903;28;20499;-82
2023/10/31 00:50:14;;;;;;;2.97;0.67;;;14.70;85.80;;;;;;5080051;28;20447;-82
2023/10/31 00:52:43;;;;;;;3.63;1.00;;;14.70;85.80;;;;;;5105191;28;20452;-81
2023/10/31 00:55:11;;;;;;;3.20;0.80;;;14.70;85.70;;;;;;5076143;28;20502;-81
2023/10/31 00:57:39;;;;;;;6.60;0.90;;;14.70;85.60;;;;;;5087068;28;20451;-81
2023/10/31 01:00:09;;;;;;;3.90;1.03;;;14.70;85.60;;;;;;5071479;28;20552;-84
2023/10/31 01:02:37;;;;;;;3.20;0.80;;;14.70;85.50;;;;;;5082726;28;20534;-83
2023/10/31 01:05:05;;;;;;;3.57;0.90;;;14.60;85.50;;;;;;5094458;28;20478;-83
2023/10/31 01:07:35;;;;;;;3.73;1.13;;;14.70;85.50;;;;;;5074795;28;20459;-80
2023/10/31 01:10:04;;;;;;;3.60;1.07;;;14.70;85.40;;;;;;5074506;28;20465;-81
2023/10/31 01:12:32;;;;;;;3.30;0.97;;;14.70;85.20;;;;;;5071652;28;20912;-81
2023/10/31 01:15:02;;;;;;;3.30;1.10;;;14.70;85.10;;;;;;5086540;28;20605;-83
2023/10/31 01:17:30;;;;;;;8.90;1.40;;;14.60;85.00;;;;;;5094404;28;20525;-80
2023/10/31 01:20:00;;;;;;;3.47;1.23;;;14.60;84.90;;;;;;5069437;28;20571;-80
2023/10/31 01:22:29;;;;;;;4.90;1.13;;;14.60;84.80;;;;;;5075800;28;20453;-81
2023/10/31 01:24:58;;;;;;;5.10;1.27;;;14.60;84.70;;;;;;5100838;28;20552;-80
2023/10/31 01:27:28;;;;;;;4.37;1.90;;;14.50;84.70;;;;;;5073995;28;20491;-83
2023/10/31 01:29:56;;;;;;;4.80;1.33;;;14.50;84.70;;;;;;5095058;28;20496;-81
2023/10/31 01:32:30;;;;;;;3.40;0.93;;;14.50;84.50;;;;;;5083089;28;20505;-82
2023/10/31 01:34:58;;;;;;;3.40;1.10;;;14.40;84.40;;;;;;5097869;28;20978;-82
2023/10/31 01:37:26;;;;;;;3.80;1.00;;;14.30;84.30;;;;;;5091668;28;20475;-83
2023/10/31 01:39:58;;;;;;;3.20;0.70;;;14.30;84.30;;;;;;5090984;28;20445;-83
2023/10/31 01:42:26;;;;;;;4.97;1.37;;;14.30;84.20;;;;;;5093468;28;20458;-81
2023/10/31 01:44:54;;;;;;;8.83;1.30;;;14.20;84.20;;;;;;5078748;28;21028;-81
2023/10/31 01:47:23;;;;;;;4.10;1.20;;;14.20;84.10;;;;;;5091981;28;20463;-79
2023/10/31 01:49:53;;;;;;;4.20;0.93;;;14.20;84.00;;;;;;5085045;28;21186;-81
2023/10/31 01:52:21;;;;;;;5.10;1.10;;;14.20;83.90;;;;;;5067806;28;20456;-85
2023/10/31 01:54:50;;;;;;;3.33;0.93;;;14.20;83.90;;;;;;5076309;28;20460;-81
2023/10/31 01:57:20;;;;;;;3.23;0.83;;;14.10;83.80;;;;;;5065959;28;20544;-82
2023/10/31 01:59:50;;;;;;;3.53;1.00;;;14.10;83.60;;;;;;5079599;28;20532;-82
2023/10/31 02:02:20;;;;;;;3.90;1.10;;;14.00;83.40;;;;;;5083388;28;21014;-80
2023/10/31 02:04:49;;;;;;;3.37;0.80;;;14.00;83.30;;;;;;5088249;28;20454;-82
2023/10/31 02:07:18;;;;;;;3.80;1.20;;;13.90;83.30;;;;;;5081650;28;20539;-80
2023/10/31 02:09:46;;;;;;;3.20;0.80;;;13.90;83.30;;;;;;5079323;28;20488;-82
2023/10/31 02:12:34;;;;;;;3.40;0.80;;;13.90;83.30;;;;;;5079274;28;20485;-80
2023/10/31 02:15:02;;;;;;;5.53;1.10;;;13.90;83.10;;;;;;5085419;28;20467;-80
2023/10/31 02:17:31;;;;;;;5.53;0.87;;;13.90;83.10;;;;;;5072768;28;20468;-81
2023/10/31 02:20:02;;;;;;;3.83;0.67;;;13.90;83.00;;;;;;5071457;28;20533;-82
2023/10/31 02:22:32;;;;;;;4.33;1.07;;;13.80;82.80;;;;;;5098911;28;20450;-81
2023/10/31 02:25:00;;;;;;;3.30;0.90;;;13.80;82.80;;;;;;5077545;28;20539;-80
2023/10/31 02:27:28;;;;;;;3.50;0.80;;;13.80;82.80;;;;;;5084943;28;21325;-81
2023/10/31 02:29:56;;;;;;;3.00;0.60;;;13.80;82.70;;;;;;5081165;28;20467;-81
2023/10/31 02:32:25;;;;;;;3.60;1.00;;;13.70;82.50;;;;;;5069316;28;20500;-81
2023/10/31 02:34:53;;;;;;;4.70;0.97;;;13.70;82.50;;;;;;5078995;28;20492;-81
2023/10/31 02:37:21;;;;;;;3.00;0.63;;;13.70;82.40;;;;;;5092452;28;21176;-81
2023/10/31 02:39:50;;;;;;;4.40;0.80;;;13.60;82.40;;;;;;5073207;28;20452;-80
2023/10/31 02:42:18;;;;;;;4.83;1.10;;;13.60;82.40;;;;;;5074635;28;20484;-80
2023/10/31 02:44:47;;;;;;;3.20;0.80;;;13.60;82.20;;;;;;5089895;28;20524;-80
2023/10/31 02:47:16;;;;;;;4.57;1.00;;;13.50;82.20;;;;;;5093533;28;20548;-83
2023/10/31 02:49:44;;;;;;;3.93;0.90;;;13.40;82.20;;;;;;5078128;28;20460;-81
2023/10/31 02:52:18;;;;;;;3.57;1.07;;;13.40;82.10;;;;;;5079644;28;20467;-80
2023/10/31 02:54:46;;;;;;;3.27;0.90;;;13.30;82.10;;;;;;5077621;28;20570;-80
2023/10/31 02:57:16;;;;;;;3.40;0.80;;;13.30;82.20;;;;;;5068492;28;21197;-81
2023/10/31 02:59:46;;;;;;;3.47;1.00;;;13.30;82.20;;;;;;5073758;28;20809;-80
2023/10/31 03:02:14;;;;;;;4.43;1.30;;;13.30;82.10;;;;;;5077444;28;20994;-80
2023/10/31 03:04:42;;;;;;;4.07;0.90;;;13.30;82.10;;;;;;5090887;28;20453;-83
2023/10/31 03:07:10;;;;;;;3.67;0.90;;;13.30;82.10;;;;;;5071301;28;20461;-80
2023/10/31 03:09:38;;;;;;;3.20;0.83;;;13.40;82.10;;;;;;5089809;28;20909;-80
2023/10/31 03:12:07;;;;;;;3.30;0.60;;;13.30;82.00;;;;;;5070830;28;20452;-81
2023/10/31 03:14:36;;;;;;;3.67;1.03;;;13.40;82.00;;;;;;5070790;28;20457;-81
2023/10/31 03:17:12;;;;;;;3.20;0.80;;;13.40;82.00;;;;;;5093753;28;20456;-81
2023/10/31 03:19:40;;;;;;;5.73;0.90;;;13.40;81.90;;;;;;5084138;28;20458;-81
2023/10/31 03:22:08;;;;;;;5.10;0.90;;;13.40;81.90;;;;;;5068375;28;20457;-80
2023/10/31 03:24:36;;;;;;;4.80;0.87;;;13.40;81.90;;;;;;5089721;28;20539;-79
2023/10/31 03:27:04;;;;;;;3.10;0.90;;;13.50;81.90;;;;;;5066172;28;20472;-80
2023/10/31 03:29:32;;;;;;;3.87;0.90;;;13.50;81.80;;;;;;5084185;28;20474;-80
2023/10/31 03:32:02;;;;;;;4.60;0.73;;;13.50;81.70;;;;;;5069881;28;20996;-81
2023/10/31 03:34:30;;;;;;;4.47;0.70;;;13.60;81.60;;;;;;5094666;28;20544;-80
2023/10/31 03:36:58;;;;;;;5.87;0.83;;;13.50;81.50;;;;;;5088072;28;21153;-82
2023/10/31 03:39:26;;;;;;;4.93;1.03;;;13.50;81.50;;;;;;5089311;28;20465;-81
2023/10/31 03:41:54;;;;;;;5.40;0.97;;;13.50;81.50;;;;;;5079089;28;20444;-81
2023/10/31 03:44:25;;;;;;;3.87;0.90;;;13.50;81.40;;;;;;5094612;28;20455;-79
2023/10/31 03:46:53;;;;;;;4.97;0.93;;;13.50;81.30;;;;;;5089072;28;20551;-81
2023/10/31 03:49:23;;;;;;;7.30;1.00;;;13.50;81.40;;;;;;5090015;28;20459;-85
2023/10/31 03:51:51;;;;;;;3.93;0.80;;;13.40;81.30;;;;;;5092741;28;20439;-82
2023/10/31 03:54:19;;;;;;;3.73;0.77;;;13.40;81.30;;;;;;5086602;28;20555;-82
2023/10/31 03:56:48;;;;;;;3.57;0.97;;;13.40;81.30;;;;;;5072920;28;20464;-81
2023/10/31 03:59:24;;;;;;;4.43;0.70;;;13.40;81.30;;;;;;5076029;28;20455;-81
2023/10/31 04:01:53;;;;;;;4.97;0.90;;;13.40;81.30;;;;;;5074886;28;21333;-80
2023/10/31 04:04:23;;;;;;;3.93;0.80;;;13.40;81.30;;;;;;5073748;28;20969;-82
2023/10/31 04:06:51;;;;;;;4.23;0.70;;;13.50;81.20;;;;;;5071153;28;20461;-84
2023/10/31 04:09:25;;;;;;;5.70;0.80;;;13.50;81.20;;;;;;5069948;28;20488;-83
2023/10/31 04:11:53;;;;;;;4.00;0.80;;;13.50;81.20;;;;;;5102094;28;21060;-82
2023/10/31 04:14:21;;;;;;;3.70;1.10;;;13.50;81.20;;;;;;5071567;28;20505;-81
2023/10/31 04:16:49;;;;;;;6.53;0.87;;;13.50;81.20;;;;;;5079544;28;21041;-80
2023/10/31 04:19:18;;;;;;;3.60;0.80;;;13.50;81.20;;;;;;5077108;28;20539;-80
2023/10/31 04:21:47;;;;;;;4.30;0.93;;;13.50;81.20;;;;;;5100753;28;20546;-83
2023/10/31 04:24:15;;;;;;;3.80;0.80;;;13.50;81.10;;;;;;5077891;28;20551;-83
2023/10/31 04:26:43;;;;;;;4.63;1.27;;;13.50;81.10;;;;;;5068920;28;20974;-83
2023/10/31 04:29:17;;;;;;;3.20;0.70;;;13.50;81.10;;;;;;5095449;28;20452;-79
2023/10/31 04:31:46;;;;;;;6.80;0.90;;;13.50;81.00;;;;;;5071122;28;20479;-82
2023/10/31 04:34:14;;;;;;;3.80;0.80;;;13.50;81.00;;;;;;5087200;28;21202;-82
2023/10/31 04:36:43;;;;;;;4.50;0.77;;;13.40;81.00;;;;;;5088499;28;20926;-81
2023/10/31 04:39:20;;;;;;;7.47;0.90;;;13.40;81.00;;;;;;5071831;28;20481;-81
2023/10/31 04:41:48;;;;;;;4.93;0.87;;;13.40;81.00;;;;;;5073923;28;20975;-83
2023/10/31 04:44:17;;;;;;;3.37;0.77;;;13.50;81.00;;;;;;5087691;28;20573;-80
2023/10/31 04:46:50;;;;;;;4.23;0.87;;;13.40;81.00;;;;;;5067722;28;20465;-83
2023/10/31 04:49:18;;;;;;;3.73;0.77;;;13.50;81.00;;;;;;5075631;28;21151;-81
2023/10/31 04:51:46;;;;;;;31.37;1.47;;;13.50;81.00;;;;;;5093923;28;20555;-81
2023/10/31 04:54:16;;;;;;;4.63;0.80;;;13.50;80.90;;;;;;5089982;28;20459;-81
2023/10/31 04:56:44;;;;;;;4.97;1.40;;;13.50;80.90;;;;;;5096649;28;20848;-82
2023/10/31 04:59:12;;;;;;;4.87;0.80;;;13.30;80.90;;;;;;5097416;28;20546;-80
2023/10/31 05:01:40;;;;;;;6.00;1.00;;;13.40;81.00;;;;;;5071083;28;20538;-79
2023/10/31 05:04:08;;;;;;;3.67;1.00;;;13.40;81.10;;;;;;5076452;28;20479;-83
2023/10/31 05:06:40;;;;;;;8.63;0.93;;;13.40;81.00;;;;;;5081898;28;20469;-82
2023/10/31 05:09:10;;;;;;;3.20;0.80;;;13.40;81.00;;;;;;5097339;28;20452;-82
2023/10/31 05:11:40;;;;;;;5.20;0.90;;;13.40;81.00;;;;;;5080294;28;20782;-81
2023/10/31 05:14:10;;;;;;;6.23;1.00;;;13.40;81.00;;;;;;5076318;28;20456;-79
2023/10/31 05:16:42;;;;;;;3.93;0.80;;;13.40;81.10;;;;;;5097505;28;20449;-80
2023/10/31 05:19:11;;;;;;;3.57;0.97;;;13.40;81.10;;;;;;5092364;28;20471;-80
2023/10/31 05:21:45;;;;;;;4.53;1.10;;;13.40;81.10;;;;;;5097285;28;21056;-80
2023/10/31 05:24:18;;;;;;;3.63;1.07;;;13.40;81.10;;;;;;5084278;28;20829;-80
2023/10/31 05:26:48;;;;;;;3.70;1.00;;;13.40;81.10;;;;;;5080084;28;20822;-81
2023/10/31 05:29:16;;;;;;;3.40;0.90;;;13.40;81.00;;;;;;5078544;28;20587;-80
2023/10/31 05:31:44;;;;;;;3.93;0.93;;;13.40;81.10;;;;;;5060786;28;21003;-81
2023/10/31 05:34:12;;;;;;;5.20;1.00;;;13.40;81.10;;;;;;5071978;28;20472;-81
2023/10/31 05:36:42;;;;;;;3.90;0.90;;;13.40;81.00;;;;;;5072620;28;20456;-81
2023/10/31 05:39:10;;;;;;;5.50;1.30;;;13.40;81.00;;;;;;5050024;28;20469;-81
2023/10/31 05:41:38;;;;;;;4.33;0.90;;;13.40;81.00;;;;;;5052932;28;20461;-79
2023/10/31 05:44:07;;;;;;;4.53;1.13;;;13.50;81.00;;;;;;5074184;28;21035;-82
2023/10/31 05:46:39;;;;;;;4.03;1.10;;;13.50;81.10;;;;;;5058870;28;20974;-80
2023/10/31 05:49:08;;;;;;;4.27;0.77;;;13.50;81.00;;;;;;5068129;28;20548;-80
2023/10/31 05:51:36;;;;;;;3.50;1.07;;;13.50;81.00;;;;;;5073280;28;20974;-79
2023/10/31 05:54:05;;;;;;;3.80;1.20;;;13.50;81.00;;;;;;5059640;28;20518;-80
2023/10/31 05:56:39;;;;;;;3.50;1.10;;;13.50;80.80;;;;;;5071684;28;20458;-82
2023/10/31 05:59:08;;;;;;;3.60;0.97;;;13.50;80.80;;;;;;5062183;28;20452;-79
2023/10/31 06:01:36;;;;;;;5.80;1.20;;;13.50;80.80;;;;;;5069507;28;20472;-80
2023/10/31 06:04:04;;;;;;;5.50;1.20;;;13.40;80.70;;;;;;5098789;28;20495;-81
2023/10/31 06:06:33;;;;;;;4.13;1.27;;;13.50;80.80;;;;;;5092635;28;20472;-80
2023/10/31 06:09:01;;;;;;;3.63;0.90;;;13.50;80.80;;;;;;5098361;28;21007;-84
2023/10/31 06:11:29;;;;;;;6.40;1.30;;;13.40;80.70;;;;;;5093779;28;20468;-83
2023/10/31 06:13:57;;;;;;;3.60;0.90;;;13.40;80.70;;;;;;5072679;28;20544;-85
2023/10/31 06:16:27;;;;;;;3.57;1.13;;;13.40;80.70;;;;;;5094724;28;20460;-82
2023/10/31 06:18:55;;;;;;;4.33;1.30;;;13.30;80.60;;;;;;5090606;28;20488;-83
2023/10/31 06:21:24;;;;;;;3.40;0.80;;;13.40;80.70;;;;;;5097963;28;20976;-82
2023/10/31 06:23:52;;;;;;;3.60;1.00;;;13.40;80.70;;;;;;5100601;28;20484;-83
2023/10/31 06:26:20;;;;;;;4.10;0.93;;;13.40;80.70;;;;;;5079040;28;20453;-83
2023/10/31 06:28:48;;;;;;;7.60;1.10;;;13.40;80.50;;;;;;5078762;28;20808;-83
2023/10/31 06:31:37;;;;;;;4.07;0.80;;;13.40;80.50;;;;;;5087146;28;20502;-80
2023/10/31 06:34:05;;;;;;;4.47;1.10;;;13.40;80.40;;;;;;5076775;28;20490;-82
2023/10/31 06:36:33;;;;;;;3.90;1.10;;;13.30;80.40;;;;;;5070097;28;20461;-83
2023/10/31 06:39:02;;;;;;;5.43;1.10;;;13.30;80.40;;;;;;5105678;28;20481;-84
2023/10/31 06:41:31;;;;;;;4.40;1.00;;;13.30;80.50;;;;;;5098580;28;20537;-81
2023/10/31 06:43:59;;;;;;;3.73;1.30;;;13.20;80.30;;;;;;5092926;28;20450;-80
2023/10/31 06:46:27;;;;;;;4.00;0.97;;;13.20;80.30;;;;;;5071687;28;20492;-83
2023/10/31 06:48:56;;;;;;;5.07;1.10;;;13.20;80.30;;;;;;5088076;28;20544;-80
2023/10/31 06:51:24;;;;;;;5.50;0.90;;;13.10;80.30;;;;;;5077635;28;20479;-80
2023/10/31 06:53:52;;;;;;;3.40;0.83;;;13.10;80.30;;;;;;5099100;28;21199;-82
2023/10/31 06:56:20;;;;;;;3.67;0.80;;;13.10;80.30;;;;;;5090052;28;20462;-81
2023/10/31 06:58:48;;;;;;;4.20;1.03;;;13.10;80.30;;;;;;5067404;28;20465;-82
2023/10/31 07:01:19;;;;;;;3.97;0.70;;;13.10;80.30;;;;;;5076288;28;20658;-83
2023/10/31 07:03:49;;;;;;;4.03;1.00;;;13.10;80.30;;;;;;5075879;28;20471;-80
2023/10/31 07:06:18;;;;;;;3.40;1.00;;;13.10;80.10;;;;;;5068555;28;20990;-80
2023/10/31 07:08:46;;;;;;;5.20;0.80;;;13.00;80.20;;;;;;5081815;28;20814;-80
2023/10/31 07:11:15;;;;;;;3.90;0.83;;;13.00;80.10;;;;;;5105745;28;20457;-81
2023/10/31 07:13:45;;;;;;;3.47;0.80;;;13.00;80.10;;;;;;5093214;28;20459;-81
2023/10/31 07:16:13;;;;;;;3.10;0.80;;;13.00;80.10;;;;;;5068432;28;20951;-80
2023/10/31 07:18:41;;;;;;;4.00;0.90;;;13.00;80.00;;;;;;5095917;28;20477;-80
2023/10/31 07:21:09;;;;;;;6.23;1.20;;;13.00;80.00;;;;;;5097275;28;20469;-82
2023/10/31 07:23:39;;;;;;;3.70;1.17;;;13.00;80.00;;;;;;5079776;28;20450;-78
2023/10/31 07:26:07;;;;;;;3.57;1.00;;;13.00;80.00;;;;;;5094749;28;20455;-80
2023/10/31 07:28:35;;;;;;;4.30;1.10;;;13.00;80.00;;;;;;5098345;28;20452;-80
2023/10/31 07:31:04;;;;;;;4.43;1.20;;;13.10;79.90;;;;;;5098180;28;21085;-83
2023/10/31 07:33:32;;;;;;;4.80;1.03;;;13.10;79.90;;;;;;5101434;28;20487;-82
2023/10/31 07:36:00;;;;;;;3.80;1.10;;;13.10;79.90;;;;;;5097203;28;20460;-80
2023/10/31 07:38:35;;;;;;;3.53;1.17;;;13.10;79.90;;;;;;5078298;28;20503;-82
2023/10/31 07:41:05;;;;;;;3.40;0.93;;;13.10;79.90;;;;;;5072225;28;20460;-82
2023/10/31 07:43:33;;;;;;;3.57;1.20;;;13.10;79.90;;;;;;5076389;28;22887;-79
2023/10/31 07:46:11;;;;;;;4.07;1.13;;;13.10;79.90;;;;;;5090974;28;20547;-78
2023/10/31 07:48:39;;;;;;;4.40;1.10;;;13.10;79.80;;;;;;5095018;28;20464;-79
2023/10/31 07:51:07;;;;;;;3.90;1.20;;;13.10;79.90;;;;;;5101332;28;20452;-79
2023/10/31 07:53:35;;;;;;;4.53;1.50;;;13.10;79.90;;;;;;5094363;28;20476;-82
2023/10/31 07:56:05;;;;;;;4.00;1.10;;;13.10;79.90;;;;;;5089810;28;20459;-83
2023/10/31 07:58:33;;;;;;;5.47;1.80;;;13.10;80.00;;;;;;5089109;28;20459;-79
2023/10/31 08:01:02;;;;;;;3.90;1.10;;;13.10;80.00;;;;;;5068746;28;20519;-79
2023/10/31 08:03:30;;;;;;;4.47;1.20;;;13.10;80.00;;;;;;5070229;28;20454;-81
2023/10/31 08:06:00;;;;;;;4.90;1.47;;;13.10;80.00;;;;;;5056385;28;21149;-80
2023/10/31 08:08:28;;;;;;;3.67;1.00;;;13.10;80.10;;;;;;5055483;28;20548;-81
2023/10/31 08:10:57;;;;;;;3.40;1.20;;;13.20;80.10;;;;;;5071138;28;20944;-82
2023/10/31 08:13:26;;;;;;;4.50;1.17;;;13.20;80.00;;;;;;5072096;28;20542;-80
2023/10/31 08:15:54;;;;;;;4.33;1.20;;;13.30;80.00;;;;;;5076949;28;20559;-80
2023/10/31 08:18:24;;;;;;;3.87;1.27;;;13.30;80.00;;;;;;5059451;28;20518;-80
2023/10/31 08:20:52;;;;;;;3.80;1.00;;;13.30;79.90;;;;;;5070721;28;20527;-82
2023/10/31 08:23:20;;;;;;;5.43;1.27;;;13.30;79.90;;;;;;5057141;28;20450;-79
2023/10/31 08:25:48;;;;;;;3.33;1.07;;;13.40;79.80;;;;;;5076670;28;20480;-81
2023/10/31 08:28:16;;;;;;;3.97;1.23;;;13.40;79.80;;;;;;5077672;28;20472;-81
2023/10/31 08:30:46;;;;;;;4.07;1.30;;;13.40;79.80;;;;;;5075031;28;20507;-79
2023/10/31 08:33:14;;;;;;;6.83;1.10;;;13.40;79.70;;;;;;5073478;28;20495;-82
2023/10/31 08:35:43;;;;;;;4.70;1.10;;;13.40;79.80;;;;;;5061403;28;20457;-80
2023/10/31 08:38:12;;;;;;;4.13;1.20;;;13.40;79.80;;;;;;5078145;28;20462;-82
2023/10/31 08:40:54;;;;;;;3.47;0.90;;;13.40;79.80;;;;;;5064412;28;20461;-80
2023/10/31 08:43:22;;;;;;;4.20;1.07;;;13.50;79.80;;;;;;5056161;28;20569;-81
2023/10/31 08:45:52;;;;;;;4.80;1.00;;;13.50;79.70;;;;;;5057907;28;20515;-81
2023/10/31 08:48:20;;;;;;;3.57;1.10;;;13.50;79.70;;;;;;5076821;28;20457;-82
2023/10/31 08:50:51;;;;;;;5.90;1.20;;;13.50;79.60;;;;;;5072393;28;20467;-80
2023/10/31 08:53:19;;;;;;;3.80;1.30;;;13.50;79.60;;;;;;5070610;28;20560;-79
2023/10/31 08:55:48;;;;;;;3.90;1.10;;;13.50;79.60;;;;;;5071504;28;20468;-81
2023/10/31 08:58:18;;;;;;;4.57;1.00;;;13.60;79.60;;;;;;5062055;28;21003;-79
2023/10/31 09:00:46;;;;;;;3.70;1.13;;;13.60;79.50;;;;;;5077690;28;20460;-81
2023/10/31 09:03:15;;;;;;;4.87;1.30;;;13.60;79.50;;;;;;5096585;28;20479;-80
2023/10/31 09:05:44;;;;;;;5.00;1.30;;;13.60;79.40;;;;;;5096801;28;20970;-79
2023/10/31 09:08:12;;;;;;;5.53;1.30;;;13.60;79.40;;;;;;5094760;28;20541;-82
2023/10/31 09:10:42;;;;;;;3.80;1.30;;;13.60;79.40;;;;;;5079478;28;20459;-81
2023/10/31 09:13:10;;;;;;;4.43;1.30;;;13.60;79.30;;;;;;5095245;28;20516;-79
2023/10/31 09:15:39;;;;;;;4.60;1.20;;;13.60;79.40;;;;;;5095451;28;20474;-79
2023/10/31 09:18:07;;;;;;;3.60;1.13;;;13.60;79.30;;;;;;5077358;28;20456;-79
2023/10/31 09:20:37;;;;;;;4.57;1.30;;;13.60;79.30;;;;;;5080299;28;20547;-81
2023/10/31 09:23:05;;;;;;;5.00;1.27;;;13.70;79.30;;;;;;5099496;28;20459;-80
2023/10/31 09:25:33;;;;;;;5.23;1.30;;;13.70;79.20;;;;;;5097099;28;20470;-80
2023/10/31 09:28:07;;;;;;;5.93;1.53;;;13.70;79.20;;;;;;5093058;28;20449;-81
2023/10/31 09:30:35;;;;;;;3.93;1.20;;;13.60;79.20;;;;;;5092006;28;20469;-82
2023/10/31 09:33:03;;;;;;;4.70;1.20;;;13.60;79.20;;;;;;5094747;28;20571;-82
2023/10/31 09:35:31;;;;;;;4.60;1.40;;;13.60;79.10;;;;;;5102529;28;20867;-81
2023/10/31 09:38:01;;;;;;;4.77;1.20;;;13.60;79.10;;;;;;5071959;28;20548;-80
2023/10/31 09:40:29;;;;;;;5.03;1.20;;;13.70;79.20;;;;;;5095939;28;20445;-80
2023/10/31 09:42:57;;;;;;;4.70;1.40;;;13.70;79.10;;;;;;5075263;28;21165;-81
2023/10/31 09:45:31;;;;;;;4.00;1.23;;;13.70;79.10;;;;;;5098484;28;20459;-80
2023/10/31 09:48:02;;;;;;;3.53;1.17;;;13.70;79.10;;;;;;5092120;28;21095;-81
2023/10/31 09:50:31;;;;;;;5.77;1.10;;;13.80;79.00;;;;;;5092521;28;21379;-79
2023/10/31 09:53:02;;;;;;;3.80;1.10;;;13.80;78.90;;;;;;5092885;28;20475;-80
2023/10/31 09:55:30;;;;;;;3.50;1.30;;;13.80;78.80;;;;;;5102113;28;20538;-78
2023/10/31 09:57:58;;;;;;;6.20;1.60;;;13.80;78.80;;;;;;5091432;28;20461;-80
2023/10/31 10:00:26;;;;;;;3.80;1.20;;;13.80;78.70;;;;;;5081941;28;20821;-81
2023/10/31 10:02:55;;;;;;;5.50;1.20;;;13.80;78.60;;;;;;5097732;28;20445;-81
2023/10/31 10:05:26;;;;;;;4.90;1.37;;;13.80;78.60;;;;;;5095689;28;20456;-79
2023/10/31 10:07:56;;;;;;;4.30;1.30;;;13.80;78.60;;;;;;5092371;28;20475;-79
2023/10/31 10:10:26;;;;;;;5.30;0.97;;;13.80;78.60;;;;;;5096119;28;20460;-80
2023/10/31 10:12:54;;;;;;;4.30;0.93;;;13.80;78.50;;;;;;5094552;28;20456;-79
2023/10/31 10:15:28;;;;;;;4.17;1.03;;;13.80;78.40;;;;;;5074284;28;20540;-80
2023/10/31 10:17:56;;;;;;;5.50;1.63;;;13.80;78.40;;;;;;5088699;28;20453;-80
2023/10/31 10:20:24;;;;;;;3.73;1.20;;;13.80;78.40;;;;;;5102368;28;20466;-78
2023/10/31 10:22:55;;;;;;;5.13;1.80;;;13.80;78.40;;;;;;5068790;28;20514;-80
2023/10/31 10:25:28;;;;;;;4.83;1.67;;;13.80;78.30;;;;;;5089674;28;20460;-80
2023/10/31 10:28:13;;;;;;;5.60;1.43;;;13.80;78.20;;;;;;5092762;28;20461;-80
2023/10/31 10:30:41;;;;;;;6.70;1.30;;;13.80;78.20;;;;;;5083268;28;20479;-80
2023/10/31 10:33:09;;;;;;;4.47;1.40;;;13.80;78.20;;;;;;5088916;28;20712;-80
2023/10/31 10:35:37;;;;;;;5.47;1.40;;;13.90;78.20;;;;;;5096761;28;20469;-80
2023/10/31 10:38:10;;;;;;;6.37;1.83;;;13.90;78.20;;;;;;5089792;28;20468;-80
2023/10/31 10:40:41;;;;;;;4.67;1.57;;;13.90;78.20;;;;;;5071281;28;20485;-79
2023/10/31 10:43:14;;;;;;;4.10;1.23;;;14.00;78.20;;;;;;5089534;28;20495;-79
2023/10/31 10:45:44;;;;;;;4.97;1.57;;;14.00;78.10;;;;;;5089390;28;20460;-78
2023/10/31 10:48:16;;;;;;;4.70;1.73;;;13.90;78.00;;;;;;5096521;28;20502;-81
2023/10/31 10:50:54;;;;;;;4.00;1.40;;;13.90;77.80;;;;;;5095338;28;20951;-80
2023/10/31 10:53:26;;;;;;;4.17;1.63;;;14.00;77.70;;;;;;5093629;28;20463;-79
2023/10/31 10:56:03;;;;;;;5.43;1.50;;;13.90;77.70;;;;;;5092718;28;20836;-78
2023/10/31 10:58:38;;;;;;;5.03;1.50;;;13.90;77.70;;;;;;5079112;28;20484;-81
2023/10/31 11:01:08;;;;;;;4.67;1.70;;;14.00;77.70;;;;;;5081559;28;20472;-79
2023/10/31 11:03:36;;;;;;;5.97;1.90;;;14.00;77.70;;;;;;5091779;28;21311;-81
2023/10/31 11:06:06;;;;;;;4.53;1.47;;;14.00;77.60;;;;;;5098066;28;20516;-82
2023/10/31 11:08:35;;;;;;;5.37;1.70;;;14.00;77.50;;;;;;5074309;28;20544;-78
2023/10/31 11:11:06;;;;;;;8.23;1.60;;;14.00;77.40;;;;;;5100713;28;20448;-78
2023/10/31 11:13:34;;;;;;;4.77;1.30;;;14.00;77.40;;;;;;5095098;28;20466;-81
2023/10/31 11:16:09;;;;;;;4.23;1.30;;;14.00;77.40;;;;;;5091458;28;20543;-81
2023/10/31 11:18:38;;;;;;;5.60;2.00;;;14.10;77.40;;;;;;5075117;28;20472;-79
2023/10/31 11:21:06;;;;;;;6.40;1.53;;;14.10;77.40;;;;;;5092796;28;20918;-80
2023/10/31 11:23:34;;;;;;;8.70;1.47;;;14.10;77.40;;;;;;5072702;28;20900;-79
2023/10/31 11:26:03;;;;;;;5.53;1.50;;;14.20;77.30;;;;;;5083442;28;20495;-80
2023/10/31 11:28:33;;;;;;;5.00;1.10;;;14.20;77.10;;;;;;5077069;28;20981;-82
2023/10/31 11:31:02;;;;;;;4.60;1.60;;;14.20;77.00;;;;;;5093872;28;20460;-80
2023/10/31 11:33:31;;;;;;;4.47;1.27;;;14.20;77.00;;;;;;5092513;28;20536;-77
2023/10/31 11:36:02;;;;;;;5.63;1.33;;;14.20;77.00;;;;;;5092239;28;21380;-81
2023/10/31 11:38:33;;;;;;;3.70;1.00;;;14.20;76.90;;;;;;5089400;28;21295;-80
2023/10/31 11:41:08;;;;;;;5.47;1.70;;;14.20;76.80;;;;;;5092347;28;20470;-80
2023/10/31 11:43:54;;;;;;;7.27;1.50;;;14.20;76.70;;;;;;5077700;28;20494;-80
2023/10/31 11:46:24;;;;;;;6.70;1.13;;;14.20;76.70;;;;;;5097645;28;20456;-80
2023/10/31 11:48:54;;;;;;;4.27;1.40;;;14.20;76.70;;;;;;5072888;28;20994;-79
2023/10/31 11:51:22;;;;;;;4.33;1.53;;;14.20;76.70;;;;;;5077287;28;20467;-81
2023/10/31 11:53:50;;;;;;;4.63;1.30;;;14.20;76.50;;;;;;5073620;28;20459;-81
2023/10/31 11:56:21;;;;;;;6.70;1.13;;;14.20;76.50;;;;;;5073202;28;20514;-80
2023/10/31 11:59:02;;;;;;;6.57;2.00;;;14.20;76.50;;;;;;5094952;28;20914;-80
2023/10/31 12:01:31;;;;;;;5.37;1.50;;;14.20;76.40;;;;;;5092420;28;20469;-80
2023/10/31 12:03:59;;;;;;;7.67;1.43;;;14.20;76.50;;;;;;5075884;28;20895;-80
2023/10/31 12:06:29;;;;;;;4.27;1.00;;;14.30;76.40;;;;;;5082523;28;20473;-81
2023/10/31 12:09:00;;;;;;;5.07;1.13;;;14.30;76.40;;;;;;5091963;28;20452;-81
2023/10/31 12:11:28;;;;;;;4.77;1.13;;;14.30;76.40;;;;;;5088435;28;20480;-80
2023/10/31 12:14:04;;;;;;;5.97;1.23;;;14.30;76.40;;;;;;5092879;28;20875;-81
2023/10/31 12:16:34;;;;;;;8.13;1.90;;;14.30;76.20;;;;;;5095293;28;20480;-80
2023/10/31 12:19:04;;;;;;;9.53;1.37;;;14.30;76.10;;;;;;5091080;28;20608;-81
2023/10/31 12:21:41;;;;;;;4.30;1.00;;;14.40;76.20;;;;;;5090272;28;20464;-81
2023/10/31 12:24:11;;;;;;;4.43;1.20;;;14.40;76.10;;;;;;5073851;28;20583;-79
2023/10/31 12:26:39;;;;;;;4.73;1.47;;;14.40;76.10;;;;;;5072166;28;20488;-81
2023/10/31 12:29:13;;;;;;;4.70;1.53;;;14.50;76.10;;;;;;5090818;28;20801;-83
2023/10/31 12:31:45;;;;;;;4.80;1.33;;;14.50;76.00;;;;;;5073828;28;20987;-78
2023/10/31 12:34:14;;;;;;;6.17;1.27;;;14.50;75.90;;;;;;5084902;28;20958;-81
2023/10/31 12:36:44;;;;;;;6.43;1.30;;;14.60;75.80;;;;;;5089660;28;20554;-81
2023/10/31 12:39:13;;;;;;;4.10;1.13;;;14.50;75.80;;;;;;5095781;28;20491;-80
2023/10/31 12:41:42;;;;;;;6.57;2.00;;;14.50;75.80;;;;;;5095426;28;21178;-82
2023/10/31 12:44:12;;;;;;;4.80;1.30;;;14.60;75.70;;;;;;5090105;28;20467;-79
2023/10/31 12:46:42;;;;;;;9.00;1.73;;;14.60;75.40;;;;;;5086827;28;20464;-80
2023/10/31 12:49:17;;;;;;;5.80;1.40;;;14.60;75.60;;;;;;5094705;28;20465;-81
2023/10/31 12:51:59;;;;;;;7.80;1.37;;;14.70;75.40;;;;;;5090096;28;20475;-80
2023/10/31 12:54:32;;;;;;;4.80;1.33;;;14.70;75.30;;;;;;5092052;28;20459;-80
2023/10/31 12:57:01;;;;;;;5.27;1.27;;;14.80;75.30;;;;;;5066182;28;20560;-81
2023/10/31 12:59:31;;;;;;;4.43;1.20;;;14.80;75.30;;;;;;5089086;28;20560;-81